sensor_id;sensor_type;location;lat;lon;timestamp;pressure;altitude;pressure_sealevel;temperature;humidity
72038;BME280;59900;50.788;12.904;2022-10-18T00:02:03;98467.78;;;16.89;79.68
72038;BME280;59900;50.788;12.904;2022-10-18T00:04:29;98478.41;;;16.89;80.05
72038;BME280;59900;50.788;12.904;2022-10-18T00:06:55;98467.38;;;16.86;79.48
72038;BME280;59900;50.788;12.904;2022-10-18T00:09:20;98470.03;;;16.86;80.35
72038;BME280;59900;50.788;12.904;2022-10-18T00:11:45;98474.16;;;16.82;80.46
72038;BME280;59900;50.788;12.904;2022-10-18T00:14:10;98468.22;;;16.79;80.87
72038;BME280;59900;50.788;12.904;2022-10-18T00:16:36;98472.13;;;16.77;80.63
72038;BME280;59900;50.788;12.904;2022-10-18T00:19:01;98471.72;;;16.73;81.20
72038;BME280;59900;50.788;12.904;2022-10-18T00:21:26;98472.38;;;16.69;80.87
72038;BME280;59900;50.788;12.904;2022-10-18T00:23:52;98473.19;;;16.69;81.26
72038;BME280;59900;50.788;12.904;2022-10-18T00:26:20;98472.00;;;16.65;81.28
72038;BME280;59900;50.788;12.904;2022-10-18T00:28:53;98469.56;;;16.64;81.58
72038;BME280;59900;50.788;12.904;2022-10-18T00:31:22;98481.03;;;16.58;81.41
72038;BME280;59900;50.788;12.904;2022-10-18T00:33:52;98475.91;;;16.56;81.43
72038;BME280;59900;50.788;12.904;2022-10-18T00:36:18;98479.78;;;16.54;81.55
72038;BME280;59900;50.788;12.904;2022-10-18T00:38:45;98483.06;;;16.49;82.25
72038;BME280;59900;50.788;12.904;2022-10-18T00:41:13;98480.84;;;16.46;82.18
72038;BME280;59900;50.788;12.904;2022-10-18T00:46:27;98479.44;;;16.37;82.38
72038;BME280;59900;50.788;12.904;2022-10-18T00:48:54;98475.38;;;16.35;82.58
72038;BME280;59900;50.788;12.904;2022-10-18T00:51:21;98473.72;;;16.34;82.51
72038;BME280;59900;50.788;12.904;2022-10-18T00:53:48;98481.88;;;16.32;82.04
72038;BME280;59900;50.788;12.904;2022-10-18T00:56:13;98483.75;;;16.32;81.87
72038;BME280;59900;50.788;12.904;2022-10-18T00:58:39;98482.91;;;16.31;81.76
72038;BME280;59900;50.788;12.904;2022-10-18T01:01:05;98476.56;;;16.32;81.70
72038;BME280;59900;50.788;12.904;2022-10-18T01:03:31;98479.03;;;16.27;80.99
72038;BME280;59900;50.788;12.904;2022-10-18T01:05:56;98472.97;;;16.20;80.72
72038;BME280;59900;50.788;12.904;2022-10-18T01:08:57;98465.44;;;16.10;80.94
72038;BME280;59900;50.788;12.904;2022-10-18T01:11:44;98467.69;;;16.00;81.12
72038;BME280;59900;50.788;12.904;2022-10-18T01:17:26;98473.44;;;15.91;81.39
72038;BME280;59900;50.788;12.904;2022-10-18T01:20:06;98473.03;;;15.81;82.11
72038;BME280;59900;50.788;12.904;2022-10-18T01:22:44;98477.09;;;15.77;82.22
72038;BME280;59900;50.788;12.904;2022-10-18T01:25:20;98467.53;;;15.76;82.19
72038;BME280;59900;50.788;12.904;2022-10-18T01:27:49;98459.59;;;15.69;82.28
72038;BME280;59900;50.788;12.904;2022-10-18T01:30:30;98463.88;;;15.63;82.30
72038;BME280;59900;50.788;12.904;2022-10-18T01:33:03;98465.31;;;15.59;82.76
72038;BME280;59900;50.788;12.904;2022-10-18T01:35:33;98465.31;;;15.53;82.70
72038;BME280;59900;50.788;12.904;2022-10-18T01:38:02;98460.63;;;15.48;82.87
72038;BME280;59900;50.788;12.904;2022-10-18T01:40:30;98453.47;;;15.42;83.28
72038;BME280;59900;50.788;12.904;2022-10-18T01:42:56;98453.06;;;15.39;84.05
72038;BME280;59900;50.788;12.904;2022-10-18T01:45:22;98461.00;;;15.39;84.62
72038;BME280;59900;50.788;12.904;2022-10-18T01:47:50;98461.63;;;15.34;84.23
72038;BME280;59900;50.788;12.904;2022-10-18T01:50:30;98460.59;;;15.29;84.73
72038;BME280;59900;50.788;12.904;2022-10-18T01:52:56;98467.50;;;15.30;84.83
72038;BME280;59900;50.788;12.904;2022-10-18T01:55:26;98463.25;;;15.29;85.56
72038;BME280;59900;50.788;12.904;2022-10-18T01:58:19;98468.34;;;15.37;85.97
72038;BME280;59900;50.788;12.904;2022-10-18T02:00:49;98466.94;;;15.41;86.27
72038;BME280;59900;50.788;12.904;2022-10-18T02:03:22;98464.09;;;15.49;85.85
72038;BME280;59900;50.788;12.904;2022-10-18T02:08:50;98457.53;;;15.45;84.81
72038;BME280;59900;50.788;12.904;2022-10-18T02:11:18;98458.56;;;15.44;84.12
72038;BME280;59900;50.788;12.904;2022-10-18T02:13:47;98461.22;;;15.37;83.53
72038;BME280;59900;50.788;12.904;2022-10-18T02:16:20;98465.28;;;15.33;84.48
72038;BME280;59900;50.788;12.904;2022-10-18T02:18:52;98465.28;;;15.27;84.90
72038;BME280;59900;50.788;12.904;2022-10-18T02:21:20;98462.22;;;15.17;85.22
72038;BME280;59900;50.788;12.904;2022-10-18T02:23:45;98467.09;;;15.13;85.84
72038;BME280;59900;50.788;12.904;2022-10-18T02:26:13;98472.38;;;15.06;85.34
72038;BME280;59900;50.788;12.904;2022-10-18T02:28:39;98468.09;;;15.12;86.54
72038;BME280;59900;50.788;12.904;2022-10-18T02:34:00;98472.22;;;15.14;87.37
72038;BME280;59900;50.788;12.904;2022-10-18T02:36:33;98467.09;;;15.13;87.43
72038;BME280;59900;50.788;12.904;2022-10-18T02:39:03;98473.00;;;15.15;87.55
72038;BME280;59900;50.788;12.904;2022-10-18T02:41:30;98471.38;;;15.14;87.28
72038;BME280;59900;50.788;12.904;2022-10-18T02:43:56;98473.00;;;15.15;87.14
72038;BME280;59900;50.788;12.904;2022-10-18T02:46:22;98474.22;;;15.12;87.31
72038;BME280;59900;50.788;12.904;2022-10-18T02:48:47;98474.03;;;15.07;88.01
72038;BME280;59900;50.788;12.904;2022-10-18T02:51:13;98472.78;;;15.03;87.68
72038;BME280;59900;50.788;12.904;2022-10-18T02:53:38;98475.81;;;15.00;87.82
72038;BME280;59900;50.788;12.904;2022-10-18T02:56:04;98476.88;;;14.99;87.46
72038;BME280;59900;50.788;12.904;2022-10-18T02:58:29;98462.19;;;14.97;87.78
72038;BME280;59900;50.788;12.904;2022-10-18T03:00:55;98473.97;;;14.94;87.36
72038;BME280;59900;50.788;12.904;2022-10-18T03:03:20;98472.16;;;14.95;87.56
72038;BME280;59900;50.788;12.904;2022-10-18T03:05:48;98470.34;;;15.02;87.30
72038;BME280;59900;50.788;12.904;2022-10-18T03:08:14;98459.16;;;15.06;87.16
72038;BME280;59900;50.788;12.904;2022-10-18T03:10:42;98463.22;;;15.09;86.76
72038;BME280;59900;50.788;12.904;2022-10-18T03:13:08;98464.84;;;15.10;86.48
72038;BME280;59900;50.788;12.904;2022-10-18T03:15:33;98474.22;;;15.12;86.40
72038;BME280;59900;50.788;12.904;2022-10-18T03:17:58;98473.41;;;15.19;85.78
72038;BME280;59900;50.788;12.904;2022-10-18T03:20:23;98473.63;;;15.24;85.60
72038;BME280;59900;50.788;12.904;2022-10-18T03:22:49;98476.25;;;15.24;84.99
72038;BME280;59900;50.788;12.904;2022-10-18T03:25:14;98472.59;;;15.25;85.02
72038;BME280;59900;50.788;12.904;2022-10-18T03:27:39;98471.59;;;15.26;84.94
72038;BME280;59900;50.788;12.904;2022-10-18T03:30:05;98470.56;;;15.27;84.72
72038;BME280;59900;50.788;12.904;2022-10-18T03:32:30;98475.88;;;15.27;84.84
72038;BME280;59900;50.788;12.904;2022-10-18T03:34:55;98479.16;;;15.29;84.83
72038;BME280;59900;50.788;12.904;2022-10-18T03:37:21;98481.56;;;15.30;85.16
72038;BME280;59900;50.788;12.904;2022-10-18T03:39:46;98479.56;;;15.32;84.67
72038;BME280;59900;50.788;12.904;2022-10-18T03:42:11;98475.28;;;15.31;84.71
72038;BME280;59900;50.788;12.904;2022-10-18T03:44:37;98478.09;;;15.30;85.13
72038;BME280;59900;50.788;12.904;2022-10-18T03:47:02;98472.81;;;15.30;85.30
72038;BME280;59900;50.788;12.904;2022-10-18T03:49:27;98472.41;;;15.33;85.12
72038;BME280;59900;50.788;12.904;2022-10-18T03:51:52;98476.47;;;15.35;85.92
72038;BME280;59900;50.788;12.904;2022-10-18T03:54:18;98473.84;;;15.42;86.55
72038;BME280;59900;50.788;12.904;2022-10-18T03:56:43;98477.53;;;15.47;86.59
72038;BME280;59900;50.788;12.904;2022-10-18T03:59:08;98478.78;;;15.51;86.72
72038;BME280;59900;50.788;12.904;2022-10-18T04:01:33;98478.34;;;15.54;86.01
72038;BME280;59900;50.788;12.904;2022-10-18T04:03:59;98476.72;;;15.60;86.86
72038;BME280;59900;50.788;12.904;2022-10-18T04:06:24;98475.50;;;15.56;86.05
72038;BME280;59900;50.788;12.904;2022-10-18T04:08:49;98470.19;;;15.56;86.18
72038;BME280;59900;50.788;12.904;2022-10-18T04:11:14;98472.84;;;15.56;86.62
72038;BME280;59900;50.788;12.904;2022-10-18T04:13:40;98468.59;;;15.55;86.76
72038;BME280;59900;50.788;12.904;2022-10-18T04:16:05;98468.78;;;15.53;86.11
72038;BME280;59900;50.788;12.904;2022-10-18T04:18:30;98467.16;;;15.52;86.01
72038;BME280;59900;50.788;12.904;2022-10-18T04:20:56;98462.06;;;15.51;86.15
72038;BME280;59900;50.788;12.904;2022-10-18T04:23:21;98464.91;;;15.49;86.39
72038;BME280;59900;50.788;12.904;2022-10-18T04:25:46;98461.22;;;15.50;86.61
72038;BME280;59900;50.788;12.904;2022-10-18T04:28:11;98463.66;;;15.45;86.14
72038;BME280;59900;50.788;12.904;2022-10-18T04:30:37;98462.63;;;15.40;85.77
72038;BME280;59900;50.788;12.904;2022-10-18T04:33:02;98469.97;;;15.38;86.25
72038;BME280;59900;50.788;12.904;2022-10-18T04:35:27;98470.38;;;15.35;86.57
72038;BME280;59900;50.788;12.904;2022-10-18T04:37:53;98463.22;;;15.35;86.61
72038;BME280;59900;50.788;12.904;2022-10-18T04:40:19;98466.91;;;15.34;86.22
72038;BME280;59900;50.788;12.904;2022-10-18T04:42:45;98463.66;;;15.32;86.23
72038;BME280;59900;50.788;12.904;2022-10-18T04:45:11;98454.69;;;15.33;87.19
72038;BME280;59900;50.788;12.904;2022-10-18T04:47:36;98449.19;;;15.35;86.99
72038;BME280;59900;50.788;12.904;2022-10-18T04:50:01;98439.41;;;15.35;86.56
72038;BME280;59900;50.788;12.904;2022-10-18T04:52:26;98422.91;;;15.33;86.62
72038;BME280;59900;50.788;12.904;2022-10-18T04:54:52;98423.53;;;15.29;87.00
72038;BME280;59900;50.788;12.904;2022-10-18T04:57:17;98428.19;;;15.27;86.79
72038;BME280;59900;50.788;12.904;2022-10-18T04:59:42;98438.00;;;15.20;86.75
72038;BME280;59900;50.788;12.904;2022-10-18T05:02:07;98438.59;;;15.08;86.89
72038;BME280;59900;50.788;12.904;2022-10-18T05:04:33;98432.25;;;14.90;86.44
72038;BME280;59900;50.788;12.904;2022-10-18T05:06:58;98434.91;;;14.90;86.94
72038;BME280;59900;50.788;12.904;2022-10-18T05:09:23;98432.03;;;14.91;87.04
72038;BME280;59900;50.788;12.904;2022-10-18T05:11:49;98418.81;;;14.91;87.12
72038;BME280;59900;50.788;12.904;2022-10-18T05:14:15;98423.31;;;14.91;87.02
72038;BME280;59900;50.788;12.904;2022-10-18T05:16:40;98414.13;;;14.93;86.88
72038;BME280;59900;50.788;12.904;2022-10-18T05:19:05;98410.28;;;14.96;86.80
72038;BME280;59900;50.788;12.904;2022-10-18T05:21:31;98418.81;;;14.91;87.09
72038;BME280;59900;50.788;12.904;2022-10-18T05:23:56;98426.97;;;14.90;87.49
72038;BME280;59900;50.788;12.904;2022-10-18T05:26:21;98421.06;;;14.88;87.97
72038;BME280;59900;50.788;12.904;2022-10-18T05:28:48;98423.50;;;14.89;87.98
72038;BME280;59900;50.788;12.904;2022-10-18T05:31:13;98417.19;;;14.90;87.95
72038;BME280;59900;50.788;12.904;2022-10-18T05:33:39;98419.84;;;14.90;87.55
72038;BME280;59900;50.788;12.904;2022-10-18T05:36:04;98412.91;;;14.96;87.88
72038;BME280;59900;50.788;12.904;2022-10-18T05:38:30;98404.75;;;14.97;87.91
72038;BME280;59900;50.788;12.904;2022-10-18T05:40:56;98402.34;;;15.02;87.56
72038;BME280;59900;50.788;12.904;2022-10-18T05:43:21;98401.53;;;15.02;87.85
72038;BME280;59900;50.788;12.904;2022-10-18T05:45:48;98402.53;;;15.07;87.99
72038;BME280;59900;50.788;12.904;2022-10-18T05:48:13;98407.41;;;15.04;88.01
72038;BME280;59900;50.788;12.904;2022-10-18T05:50:38;98418.00;;;15.04;88.34
72038;BME280;59900;50.788;12.904;2022-10-18T05:53:03;98425.13;;;15.03;88.91
72038;BME280;59900;50.788;12.904;2022-10-18T05:55:29;98419.22;;;15.01;88.36
72038;BME280;59900;50.788;12.904;2022-10-18T05:57:54;98418.22;;;15.02;88.61
72038;BME280;59900;50.788;12.904;2022-10-18T06:00:19;98405.78;;;15.03;88.23
72038;BME280;59900;50.788;12.904;2022-10-18T06:02:44;98405.78;;;15.03;88.51
72038;BME280;59900;50.788;12.904;2022-10-18T06:05:10;98400.50;;;15.03;88.46
72038;BME280;59900;50.788;12.904;2022-10-18T06:07:35;98401.53;;;15.02;88.45
72038;BME280;59900;50.788;12.904;2022-10-18T06:10:00;98404.16;;;15.02;87.87
72038;BME280;59900;50.788;12.904;2022-10-18T06:12:26;98399.69;;;15.02;87.88
72038;BME280;59900;50.788;12.904;2022-10-18T06:14:51;98405.38;;;15.06;88.60
72038;BME280;59900;50.788;12.904;2022-10-18T06:17:16;98392.56;;;15.09;88.29
72038;BME280;59900;50.788;12.904;2022-10-18T06:19:42;98400.72;;;15.14;88.04
72038;BME280;59900;50.788;12.904;2022-10-18T06:22:11;98401.75;;;15.20;88.47
72038;BME280;59900;50.788;12.904;2022-10-18T06:24:36;98407.22;;;15.19;87.96
72038;BME280;59900;50.788;12.904;2022-10-18T06:27:02;98405.41;;;15.19;87.99
72038;BME280;59900;50.788;12.904;2022-10-18T06:29:37;98412.75;;;15.17;87.73
72038;BME280;59900;50.788;12.904;2022-10-18T06:32:03;98419.03;;;15.16;87.80
72038;BME280;59900;50.788;12.904;2022-10-18T06:34:29;98410.50;;;15.14;87.96
72038;BME280;59900;50.788;12.904;2022-10-18T06:36:54;98409.69;;;15.20;88.20
72038;BME280;59900;50.788;12.904;2022-10-18T06:39:19;98407.63;;;15.22;87.54
72038;BME280;59900;50.788;12.904;2022-10-18T06:41:45;98413.13;;;15.27;87.56
72038;BME280;59900;50.788;12.904;2022-10-18T06:44:10;98418.84;;;15.31;87.31
72038;BME280;59900;50.788;12.904;2022-10-18T06:46:40;98415.78;;;15.34;87.57
72038;BME280;59900;50.788;12.904;2022-10-18T06:49:05;98418.84;;;15.37;87.46
72038;BME280;59900;50.788;12.904;2022-10-18T06:51:31;98408.03;;;15.39;87.13
72038;BME280;59900;50.788;12.904;2022-10-18T06:53:56;98419.03;;;15.36;86.90
72038;BME280;59900;50.788;12.904;2022-10-18T06:56:21;98408.47;;;15.29;86.35
72038;BME280;59900;50.788;12.904;2022-10-18T06:58:47;98407.84;;;15.27;87.12
72038;BME280;59900;50.788;12.904;2022-10-18T07:01:14;98402.13;;;15.24;87.24
72038;BME280;59900;50.788;12.904;2022-10-18T07:03:41;98399.69;;;15.22;87.49
72038;BME280;59900;50.788;12.904;2022-10-18T07:06:08;98394.41;;;15.22;87.52
72038;BME280;59900;50.788;12.904;2022-10-18T07:08:34;98402.94;;;15.24;88.39
72038;BME280;59900;50.788;12.904;2022-10-18T07:10:59;98398.06;;;15.28;87.93
72038;BME280;59900;50.788;12.904;2022-10-18T07:13:27;98395.59;;;15.33;88.11
72038;BME280;59900;50.788;12.904;2022-10-18T07:16:03;98408.03;;;15.39;88.17
72038;BME280;59900;50.788;12.904;2022-10-18T07:18:29;98410.91;;;15.44;88.45
72038;BME280;59900;50.788;12.904;2022-10-18T07:20:55;98420.91;;;15.48;87.94
72038;BME280;59900;50.788;12.904;2022-10-18T07:23:21;98423.09;;;15.45;88.09
72038;BME280;59900;50.788;12.904;2022-10-18T07:25:48;98417.44;;;15.48;88.46
72038;BME280;59900;50.788;12.904;2022-10-18T07:28:13;98410.72;;;15.52;87.75
72038;BME280;59900;50.788;12.904;2022-10-18T07:30:38;98403.53;;;15.59;88.35
72038;BME280;59900;50.788;12.904;2022-10-18T07:33:03;98393.16;;;15.64;88.65
72038;BME280;59900;50.788;12.904;2022-10-18T07:35:29;98389.06;;;15.68;88.56
72038;BME280;59900;50.788;12.904;2022-10-18T07:37:54;98389.28;;;15.73;89.09
72038;BME280;59900;50.788;12.904;2022-10-18T07:40:19;98381.50;;;15.78;89.45
72038;BME280;59900;50.788;12.904;2022-10-18T07:42:45;98375.78;;;15.81;89.22
72038;BME280;59900;50.788;12.904;2022-10-18T07:45:10;98372.91;;;15.83;88.89
72038;BME280;59900;50.788;12.904;2022-10-18T07:47:36;98371.50;;;15.87;88.55
72038;BME280;59900;50.788;12.904;2022-10-18T07:50:02;98360.88;;;15.87;87.97
72038;BME280;59900;50.788;12.904;2022-10-18T07:52:27;98360.06;;;15.93;88.47
72038;BME280;59900;50.788;12.904;2022-10-18T07:54:52;98359.81;;;16.01;87.97
72038;BME280;59900;50.788;12.904;2022-10-18T07:57:17;98358.97;;;16.07;87.88
72038;BME280;59900;50.788;12.904;2022-10-18T07:59:43;98349.16;;;16.14;87.53
72038;BME280;59900;50.788;12.904;2022-10-18T08:02:10;98342.38;;;16.18;87.73
72038;BME280;59900;50.788;12.904;2022-10-18T08:04:35;98341.53;;;16.24;87.31
72038;BME280;59900;50.788;12.904;2022-10-18T08:07:01;98349.91;;;16.27;87.93
72038;BME280;59900;50.788;12.904;2022-10-18T08:09:26;98342.75;;;16.28;87.50
72038;BME280;59900;50.788;12.904;2022-10-18T08:11:51;98339.88;;;16.30;86.73
72038;BME280;59900;50.788;12.904;2022-10-18T08:14:16;98343.31;;;16.37;86.96
72038;BME280;59900;50.788;12.904;2022-10-18T08:16:42;98342.31;;;16.38;87.82
72038;BME280;59900;50.788;12.904;2022-10-18T08:19:07;98333.72;;;16.36;87.93
72038;BME280;59900;50.788;12.904;2022-10-18T08:21:32;98333.94;;;16.41;88.32
72038;BME280;59900;50.788;12.904;2022-10-18T08:23:58;98337.38;;;16.41;87.41
72038;BME280;59900;50.788;12.904;2022-10-18T08:26:23;98325.91;;;16.47;88.13
72038;BME280;59900;50.788;12.904;2022-10-18T08:28:48;98314.03;;;16.50;87.52
72038;BME280;59900;50.788;12.904;2022-10-18T08:31:16;98315.47;;;16.52;87.55
72038;BME280;59900;50.788;12.904;2022-10-18T08:33:42;98315.28;;;16.54;87.42
72038;BME280;59900;50.788;12.904;2022-10-18T08:36:10;98322.00;;;16.56;86.31
72038;BME280;59900;50.788;12.904;2022-10-18T08:38:37;98309.78;;;16.55;85.78
72038;BME280;59900;50.788;12.904;2022-10-18T08:43:46;98310.94;;;16.59;85.95
72038;BME280;59900;50.788;12.904;2022-10-18T08:46:13;98309.50;;;16.63;86.43
72038;BME280;59900;50.788;12.904;2022-10-18T08:48:41;98310.09;;;16.65;85.97
72038;BME280;59900;50.788;12.904;2022-10-18T08:51:26;98308.03;;;16.67;85.48
72038;BME280;59900;50.788;12.904;2022-10-18T08:54:01;98304.75;;;16.72;86.44
72038;BME280;59900;50.788;12.904;2022-10-18T08:56:27;98304.50;;;16.73;85.64
72038;BME280;59900;50.788;12.904;2022-10-18T08:58:53;98305.13;;;16.75;86.25
72038;BME280;59900;50.788;12.904;2022-10-18T09:04:21;98297.31;;;16.80;85.73
72038;BME280;59900;50.788;12.904;2022-10-18T09:09:44;98298.72;;;16.83;85.86
72038;BME280;59900;50.788;12.904;2022-10-18T09:12:29;98303.56;;;16.93;85.53
72038;BME280;59900;50.788;12.904;2022-10-18T09:17:56;98303.53;;;17.17;86.26
72038;BME280;59900;50.788;12.904;2022-10-18T09:20:25;98300.38;;;17.27;84.21
72038;BME280;59900;50.788;12.904;2022-10-18T09:25:43;98304.81;;;17.51;84.78
72038;BME280;59900;50.788;12.904;2022-10-18T09:28:18;98311.06;;;17.63;84.49
72038;BME280;59900;50.788;12.904;2022-10-18T09:33:49;98319.47;;;17.78;81.28
72038;BME280;59900;50.788;12.904;2022-10-18T09:36:21;98307.84;;;17.91;80.38
72038;BME280;59900;50.788;12.904;2022-10-18T09:38:53;98312.78;;;18.06;80.36
72038;BME280;59900;50.788;12.904;2022-10-18T09:41:28;98316.53;;;18.16;80.57
72038;BME280;59900;50.788;12.904;2022-10-18T09:44:02;98324.44;;;18.23;80.34
72038;BME280;59900;50.788;12.904;2022-10-18T09:46:33;98335.78;;;18.30;80.34
72038;BME280;59900;50.788;12.904;2022-10-18T09:49:05;98343.91;;;18.35;79.02
72038;BME280;59900;50.788;12.904;2022-10-18T09:51:37;98373.53;;;18.38;79.35
72038;BME280;59900;50.788;12.904;2022-10-18T09:54:18;98386.13;;;18.31;78.72
72038;BME280;59900;50.788;12.904;2022-10-18T09:57:14;98359.56;;;18.13;79.98
72038;BME280;59900;50.788;12.904;2022-10-18T09:59:45;98369.53;;;18.00;79.79
72038;BME280;59900;50.788;12.904;2022-10-18T10:02:13;98379.38;;;17.81;81.47
72038;BME280;59900;50.788;12.904;2022-10-18T10:04:39;98391.75;;;17.69;81.71
72038;BME280;59900;50.788;12.904;2022-10-18T10:07:07;98392.53;;;17.51;81.93
72038;BME280;59900;50.788;12.904;2022-10-18T10:09:40;98401.47;;;17.32;82.91
72038;BME280;59900;50.788;12.904;2022-10-18T10:14:49;98401.44;;;17.14;84.22
72038;BME280;59900;50.788;12.904;2022-10-18T10:17:24;98403.56;;;17.05;84.13
72038;BME280;59900;50.788;12.904;2022-10-18T10:20:20;98405.19;;;17.00;85.10
72038;BME280;59900;50.788;12.904;2022-10-18T10:22:45;98411.47;;;16.80;85.18
72038;BME280;59900;50.788;12.904;2022-10-18T10:25:21;98408.88;;;16.67;86.10
72038;BME280;59900;50.788;12.904;2022-10-18T10:27:47;98409.38;;;16.58;86.84
72038;BME280;59900;50.788;12.904;2022-10-18T10:30:27;98409.97;;;16.53;87.54
72038;BME280;59900;50.788;12.904;2022-10-18T10:32:55;98423.69;;;16.44;87.98
72038;BME280;59900;50.788;12.904;2022-10-18T10:37:52;98428.91;;;16.19;89.29
72038;BME280;59900;50.788;12.904;2022-10-18T10:40:29;98420.94;;;16.12;89.68
72038;BME280;59900;50.788;12.904;2022-10-18T10:43:01;98408.13;;;16.03;90.37
72038;BME280;59900;50.788;12.904;2022-10-18T10:45:30;98423.44;;;16.01;90.70
72038;BME280;59900;50.788;12.904;2022-10-18T10:48:11;98418.38;;;15.93;90.97
72038;BME280;59900;50.788;12.904;2022-10-18T10:50:56;98422.03;;;15.92;92.53
72038;BME280;59900;50.788;12.904;2022-10-18T10:53:35;98416.13;;;15.90;93.02
72038;BME280;59900;50.788;12.904;2022-10-18T10:56:02;98412.66;;;15.89;93.13
72038;BME280;59900;50.788;12.904;2022-10-18T10:58:34;98422.91;;;15.79;92.80
72038;BME280;59900;50.788;12.904;2022-10-18T11:03:46;98425.78;;;15.58;94.47
72038;BME280;59900;50.788;12.904;2022-10-18T11:06:29;98420.69;;;15.56;95.31
72038;BME280;59900;50.788;12.904;2022-10-18T11:08:58;98426.38;;;15.53;95.66
72038;BME280;59900;50.788;12.904;2022-10-18T11:11:30;98428.22;;;15.46;95.58
72038;BME280;59900;50.788;12.904;2022-10-18T11:14:05;98434.50;;;15.39;96.14
72038;BME280;59900;50.788;12.904;2022-10-18T11:19:50;98433.91;;;15.37;96.36
72038;BME280;59900;50.788;12.904;2022-10-18T11:22:23;98437.19;;;15.32;96.11
72038;BME280;59900;50.788;12.904;2022-10-18T11:24:50;98442.06;;;15.29;96.43
72038;BME280;59900;50.788;12.904;2022-10-18T11:27:27;98435.94;;;15.28;96.05
72038;BME280;59900;50.788;12.904;2022-10-18T11:30:09;98441.44;;;15.27;96.70
72038;BME280;59900;50.788;12.904;2022-10-18T11:32:47;98433.09;;;15.30;97.05
72038;BME280;59900;50.788;12.904;2022-10-18T11:35:31;98429.41;;;15.24;96.36
72038;BME280;59900;50.788;12.904;2022-10-18T11:38:33;98426.59;;;15.26;96.78
72038;BME280;59900;50.788;12.904;2022-10-18T11:44:16;98421.50;;;15.11;97.67
72038;BME280;59900;50.788;12.904;2022-10-18T11:46:52;98415.16;;;15.12;97.27
72038;BME280;59900;50.788;12.904;2022-10-18T11:49:31;98417.41;;;15.15;97.35
72038;BME280;59900;50.788;12.904;2022-10-18T11:52:27;98418.84;;;15.18;98.01
72038;BME280;59900;50.788;12.904;2022-10-18T11:58:02;98428.19;;;15.27;97.25
72038;BME280;59900;50.788;12.904;2022-10-18T12:06:24;98453.88;;;15.26;96.13
72038;BME280;59900;50.788;12.904;2022-10-18T12:08:55;98452.84;;;15.21;95.97
72038;BME280;59900;50.788;12.904;2022-10-18T12:11:27;98446.94;;;15.25;95.91
72038;BME280;59900;50.788;12.904;2022-10-18T12:13:58;98445.72;;;15.21;95.50
72038;BME280;59900;50.788;12.904;2022-10-18T12:16:28;98451.63;;;15.10;95.83
72038;BME280;59900;50.788;12.904;2022-10-18T12:18:57;98448.75;;;15.18;96.57
72038;BME280;59900;50.788;12.904;2022-10-18T12:21:25;98444.72;;;15.22;95.98
72038;BME280;59900;50.788;12.904;2022-10-18T12:23:58;98439.59;;;15.27;96.11
72038;BME280;59900;50.788;12.904;2022-10-18T12:26:25;98434.94;;;15.29;95.90
72038;BME280;59900;50.788;12.904;2022-10-18T12:31:25;98437.38;;;15.24;96.47
72038;BME280;59900;50.788;12.904;2022-10-18T12:33:55;98449.00;;;15.23;96.13
72038;BME280;59900;50.788;12.904;2022-10-18T12:39:26;98451.03;;;15.14;96.88
72038;BME280;59900;50.788;12.904;2022-10-18T12:41:55;98455.09;;;15.10;96.96
72038;BME280;59900;50.788;12.904;2022-10-18T12:44:32;98456.72;;;15.05;97.54
72038;BME280;59900;50.788;12.904;2022-10-18T12:47:00;98456.72;;;15.05;98.00
72038;BME280;59900;50.788;12.904;2022-10-18T12:49:36;98451.81;;;15.02;98.87
72038;BME280;59900;50.788;12.904;2022-10-18T12:52:19;98446.50;;;14.95;98.54
72038;BME280;59900;50.788;12.904;2022-10-18T13:08:36;98458.56;;;15.11;98.11
72038;BME280;59900;50.788;12.904;2022-10-18T13:16:46;98451.25;;;15.26;98.24
72038;BME280;59900;50.788;12.904;2022-10-18T13:19:27;98450.63;;;15.31;97.91
72038;BME280;59900;50.788;12.904;2022-10-18T13:22:23;98450.00;;;15.35;97.89
72038;BME280;59900;50.788;12.904;2022-10-18T13:24:59;98445.75;;;15.41;97.51
72038;BME280;59900;50.788;12.904;2022-10-18T13:27:52;98442.69;;;15.44;97.24
72038;BME280;59900;50.788;12.904;2022-10-18T13:30:30;98438.81;;;15.46;97.12
72038;BME280;59900;50.788;12.904;2022-10-18T13:35:57;98433.31;;;15.54;96.97
72038;BME280;59900;50.788;12.904;2022-10-18T13:41:17;98431.50;;;15.61;96.35
72038;BME280;59900;50.788;12.904;2022-10-18T13:43:55;98438.22;;;15.64;95.70
72038;BME280;59900;50.788;12.904;2022-10-18T13:52:14;98452.06;;;15.59;94.48
72038;BME280;59900;50.788;12.904;2022-10-18T14:05:49;98451.44;;;15.70;94.85
72038;BME280;59900;50.788;12.904;2022-10-18T14:08:28;98453.06;;;15.72;93.96
72038;BME280;59900;50.788;12.904;2022-10-18T14:16:29;98458.38;;;15.78;94.54
72038;BME280;59900;50.788;12.904;2022-10-18T14:19:03;98457.53;;;15.78;93.56
72038;BME280;59900;50.788;12.904;2022-10-18T14:21:36;98455.91;;;15.77;93.43
72038;BME280;59900;50.788;12.904;2022-10-18T14:24:11;98458.78;;;15.68;92.59
72038;BME280;59900;50.788;12.904;2022-10-18T14:26:39;98461.66;;;15.67;93.39
72038;BME280;59900;50.788;12.904;2022-10-18T14:29:05;98463.66;;;15.65;94.03
72038;BME280;59900;50.788;12.904;2022-10-18T14:31:31;98468.16;;;15.71;94.38
72038;BME280;59900;50.788;12.904;2022-10-18T14:33:57;98469.78;;;15.72;93.57
72038;BME280;59900;50.788;12.904;2022-10-18T14:36:25;98472.22;;;15.74;93.63
72038;BME280;59900;50.788;12.904;2022-10-18T14:39:00;98476.50;;;15.75;92.86
72038;BME280;59900;50.788;12.904;2022-10-18T14:41:33;98480.81;;;15.76;92.73
72038;BME280;59900;50.788;12.904;2022-10-18T14:47:01;98481.00;;;15.74;92.98
72038;BME280;59900;50.788;12.904;2022-10-18T14:49:27;98482.81;;;15.74;92.91